PDA005 LIEO-UKBB
Flight info
| Callsign | PDA005 |
|---|---|
| Flight time | N/A |
| Altitude | 32000 |
| Route | BATOX6K/05 BATOX L5 VALMA L865 ANC/N0389F200 M986 IBENI/N0449F350 DCT NIVES DCT VEBAL DCT DODAR DCT LONLA/K0828F350 M986 IVF M991 NIROV T199 GAMLA N180 SULUM |
| Aircraft | A321/M-SDE3FGHIRWY/LB1 |
Departure
| Time | N/A |
|---|---|
| Airport | Olbia Costa Smeralda Airport (LIEO) |
Arrival
| Time | 2026-04-28 19:34 |
|---|---|
| Airport | Boryspil International Airport (UKBB) |
| Time | Latitude | Longitude | Altitude | Speed | Heading |
|---|---|---|---|---|---|
| 2026-04-28 18:33 | 48.20571 | 21.97053 | 36168 ft | 490 kts | 52° |
| 2026-04-28 18:34 | 48.23979 | 22.05866 | 36170 ft | 491 kts | 52° |
| 2026-04-28 18:34 | 48.27380 | 22.14697 | 36180 ft | 491 kts | 52° |
| 2026-04-28 18:35 | 48.30804 | 22.23617 | 36180 ft | 491 kts | 52° |
| 2026-04-28 18:35 | 48.33984 | 22.32729 | 36182 ft | 496 kts | 58° |
| 2026-04-28 18:36 | 48.36503 | 22.42424 | 36185 ft | 502 kts | 64° |
| 2026-04-28 18:36 | 48.38776 | 22.52363 | 36189 ft | 502 kts | 64° |
| 2026-04-28 18:37 | 48.41046 | 22.62294 | 36187 ft | 502 kts | 64° |
| 2026-04-28 18:37 | 48.43325 | 22.72218 | 36188 ft | 503 kts | 65° |
| 2026-04-28 18:38 | 48.45595 | 22.82140 | 36180 ft | 503 kts | 65° |
| 2026-04-28 18:38 | 48.47829 | 22.92140 | 36174 ft | 504 kts | 66° |
| 2026-04-28 18:39 | 48.50047 | 23.02249 | 36171 ft | 503 kts | 66° |
| 2026-04-28 18:39 | 48.52223 | 23.12201 | 36162 ft | 504 kts | 66° |
| 2026-04-28 18:40 | 48.54505 | 23.22231 | 36166 ft | 501 kts | 63° |
| 2026-04-28 18:40 | 48.56966 | 23.32083 | 36162 ft | 501 kts | 63° |
| 2026-04-28 18:41 | 48.59446 | 23.42002 | 36167 ft | 502 kts | 63° |
| 2026-04-28 18:41 | 48.61882 | 23.51857 | 36153 ft | 501 kts | 63° |
| 2026-04-28 18:42 | 48.64300 | 23.61697 | 36161 ft | 501 kts | 63° |
| 2026-04-28 18:42 | 48.66643 | 23.71585 | 36147 ft | 502 kts | 65° |
| 2026-04-28 18:43 | 48.68927 | 23.81653 | 36145 ft | 503 kts | 65° |
| 2026-04-28 18:43 | 48.71189 | 23.91652 | 36154 ft | 503 kts | 65° |
| 2026-04-28 18:44 | 48.73454 | 24.01685 | 36152 ft | 503 kts | 65° |
| 2026-04-28 18:44 | 48.76841 | 24.16747 | 36166 ft | 503 kts | 65° |
| 2026-04-28 18:45 | 48.79076 | 24.26759 | 36182 ft | 501 kts | 65° |
| 2026-04-28 18:45 | 48.81312 | 24.36821 | 36188 ft | 501 kts | 65° |
| 2026-04-28 18:46 | 48.83516 | 24.46785 | 36204 ft | 502 kts | 65° |
| 2026-04-28 18:46 | 48.85736 | 24.56886 | 36210 ft | 502 kts | 65° |
| 2026-04-28 18:47 | 48.87632 | 24.67035 | 36203 ft | 506 kts | 73° |
| 2026-04-28 18:47 | 48.88733 | 24.77640 | 36219 ft | 511 kts | 81° |
| 2026-04-28 18:48 | 48.89147 | 24.88374 | 36222 ft | 512 kts | 84° |
| 2026-04-28 18:48 | 48.89473 | 24.99139 | 36215 ft | 512 kts | 84° |
| 2026-04-28 18:49 | 48.89758 | 25.08122 | 36224 ft | 512 kts | 83° |
| 2026-04-28 18:49 | 48.90161 | 25.20722 | 36222 ft | 511 kts | 83° |
| 2026-04-28 18:50 | 48.90500 | 25.31498 | 36211 ft | 510 kts | 83° |
| 2026-04-28 18:50 | 48.90828 | 25.42247 | 36208 ft | 511 kts | 83° |
| 2026-04-28 18:51 | 48.91141 | 25.52979 | 36207 ft | 511 kts | 83° |
| 2026-04-28 18:51 | 48.91465 | 25.63743 | 36206 ft | 511 kts | 83° |
| 2026-04-28 18:52 | 48.91867 | 25.74508 | 36208 ft | 511 kts | 83° |
| 2026-04-28 18:52 | 48.92264 | 25.85238 | 36198 ft | 511 kts | 83° |
| 2026-04-28 18:53 | 48.92641 | 25.96007 | 36204 ft | 510 kts | 84° |
| 2026-04-28 18:53 | 48.93007 | 26.06753 | 36208 ft | 511 kts | 84° |
| 2026-04-28 18:54 | 48.93358 | 26.17465 | 36212 ft | 510 kts | 84° |
| 2026-04-28 18:54 | 48.93700 | 26.28189 | 36205 ft | 510 kts | 84° |
| 2026-04-28 18:55 | 48.93979 | 26.37183 | 36202 ft | 510 kts | 84° |
| 2026-04-28 18:55 | 48.94356 | 26.49759 | 36206 ft | 511 kts | 84° |
| 2026-04-28 18:56 | 48.94664 | 26.60471 | 36211 ft | 510 kts | 84° |
| 2026-04-28 18:56 | 48.94961 | 26.71191 | 36198 ft | 511 kts | 85° |
| 2026-04-28 18:57 | 48.95211 | 26.81993 | 36198 ft | 510 kts | 85° |
| 2026-04-28 18:57 | 48.95440 | 26.92745 | 36199 ft | 510 kts | 85° |
| 2026-04-28 18:58 | 48.95662 | 27.03519 | 36200 ft | 510 kts | 85° |
| 2026-04-28 18:58 | 48.95875 | 27.14326 | 36191 ft | 510 kts | 85° |
| 2026-04-28 18:59 | 48.96077 | 27.25088 | 36197 ft | 510 kts | 85° |
| 2026-04-28 18:59 | 48.96272 | 27.35949 | 36193 ft | 510 kts | 86° |
| 2026-04-28 19:00 | 48.96454 | 27.46727 | 36188 ft | 510 kts | 85° |
| 2026-04-28 19:00 | 48.96625 | 27.57473 | 36198 ft | 511 kts | 85° |
| 2026-04-28 19:01 | 48.96785 | 27.68247 | 36193 ft | 512 kts | 86° |
| 2026-04-28 19:01 | 48.96937 | 27.79059 | 36191 ft | 512 kts | 86° |
| 2026-04-28 19:02 | 48.97039 | 27.89864 | 36196 ft | 512 kts | 88° |
| 2026-04-28 19:02 | 48.97030 | 28.00675 | 36195 ft | 512 kts | 88° |
| 2026-04-28 19:03 | 48.97005 | 28.11443 | 36188 ft | 511 kts | 88° |
| 2026-04-28 19:03 | 48.96978 | 28.22359 | 36183 ft | 511 kts | 88° |
| 2026-04-28 19:04 | 48.96944 | 28.33129 | 36189 ft | 511 kts | 88° |
| 2026-04-28 19:04 | 48.96902 | 28.43973 | 36186 ft | 511 kts | 88° |
| 2026-04-28 19:05 | 48.96847 | 28.54718 | 36171 ft | 511 kts | 88° |
| 2026-04-28 19:05 | 48.96781 | 28.65492 | 36162 ft | 511 kts | 89° |
| 2026-04-28 19:06 | 48.96763 | 28.74543 | 36183 ft | 511 kts | 86° |
| 2026-04-28 19:06 | 48.97520 | 28.87018 | 36173 ft | 507 kts | 78° |
| 2026-04-28 19:07 | 48.99060 | 28.97378 | 36167 ft | 504 kts | 70° |
| 2026-04-28 19:07 | 49.01098 | 29.07575 | 36169 ft | 504 kts | 69° |
| 2026-04-28 19:08 | 49.03149 | 29.17727 | 36157 ft | 500 kts | 70° |
| 2026-04-28 19:08 | 49.04159 | 29.22808 | 35959 ft | 492 kts | 70° |
| 2026-04-28 19:08 | 49.05129 | 29.27723 | 35766 ft | 488 kts | 70° |
| 2026-04-28 19:09 | 49.06103 | 29.32668 | 35550 ft | 485 kts | 70° |
| 2026-04-28 19:09 | 49.07064 | 29.37568 | 35305 ft | 484 kts | 69° |
| 2026-04-28 19:09 | 49.08018 | 29.42444 | 34925 ft | 483 kts | 69° |
| 2026-04-28 19:09 | 49.08973 | 29.47345 | 34381 ft | 486 kts | 69° |
| 2026-04-28 19:10 | 49.09938 | 29.52304 | 33771 ft | 491 kts | 69° |
| 2026-04-28 19:10 | 49.10908 | 29.57293 | 33059 ft | 498 kts | 69° |
| 2026-04-28 19:10 | 49.11897 | 29.62394 | 32295 ft | 505 kts | 69° |
| 2026-04-28 19:10 | 49.12888 | 29.67521 | 31464 ft | 510 kts | 69° |
| 2026-04-28 19:11 | 49.13894 | 29.72741 | 30510 ft | 514 kts | 69° |
| 2026-04-28 19:11 | 49.14896 | 29.77954 | 29593 ft | 515 kts | 70° |
| 2026-04-28 19:11 | 49.15897 | 29.83182 | 28711 ft | 515 kts | 70° |
| 2026-04-28 19:11 | 49.16878 | 29.88338 | 27869 ft | 513 kts | 70° |
| 2026-04-28 19:12 | 49.17876 | 29.93577 | 26975 ft | 512 kts | 70° |
| 2026-04-28 19:12 | 49.18860 | 29.98761 | 26124 ft | 510 kts | 70° |
| 2026-04-28 19:12 | 49.19835 | 30.03917 | 25520 ft | 502 kts | 70° |
| 2026-04-28 19:12 | 49.20799 | 30.09037 | 24906 ft | 495 kts | 70° |
| 2026-04-28 19:13 | 49.21744 | 30.14068 | 24314 ft | 488 kts | 70° |
| 2026-04-28 19:13 | 49.22674 | 30.19029 | 23692 ft | 483 kts | 70° |
| 2026-04-28 19:13 | 49.23581 | 30.23887 | 23110 ft | 476 kts | 70° |
| 2026-04-28 19:13 | 49.24485 | 30.28740 | 22561 ft | 470 kts | 70° |
| 2026-04-28 19:14 | 49.25372 | 30.33504 | 21986 ft | 465 kts | 70° |
| 2026-04-28 19:14 | 49.26314 | 30.38207 | 21414 ft | 456 kts | 64° |
| 2026-04-28 19:14 | 49.27885 | 30.42327 | 20861 ft | 438 kts | 45° |
| 2026-04-28 19:14 | 49.30047 | 30.45376 | 20330 ft | 420 kts | 27° |
| 2026-04-28 19:15 | 49.32480 | 30.47684 | 19815 ft | 412 kts | 23° |
| 2026-04-28 19:15 | 49.34938 | 30.49877 | 19301 ft | 407 kts | 22° |
| 2026-04-28 19:15 | 49.37416 | 30.52098 | 18764 ft | 404 kts | 23° |
| 2026-04-28 19:15 | 49.39019 | 30.53557 | 18431 ft | 402 kts | 23° |
| 2026-04-28 19:16 | 49.42227 | 30.56517 | 17752 ft | 398 kts | 24° |
| 2026-04-28 19:16 | 49.44524 | 30.58669 | 17634 ft | 383 kts | 24° |
| 2026-04-28 19:16 | 49.46801 | 30.60813 | 17513 ft | 369 kts | 24° |
| 2026-04-28 19:16 | 49.48971 | 30.62861 | 17414 ft | 355 kts | 23° |
| 2026-04-28 19:17 | 49.51020 | 30.64793 | 17305 ft | 342 kts | 23° |
| 2026-04-28 19:17 | 49.53016 | 30.66675 | 17204 ft | 330 kts | 24° |
| 2026-04-28 19:17 | 49.54958 | 30.68417 | 17149 ft | 311 kts | 18° |
| 2026-04-28 19:17 | 49.56907 | 30.69651 | 17029 ft | 294 kts | 8° |
| 2026-04-28 19:18 | 49.58863 | 30.70422 | 16668 ft | 287 kts | 3° |
| 2026-04-28 19:18 | 49.60810 | 30.71064 | 16378 ft | 282 kts | 2° |
| 2026-04-28 19:18 | 49.62727 | 30.71684 | 16094 ft | 278 kts | 3° |
| 2026-04-28 19:18 | 49.64616 | 30.72302 | 15805 ft | 274 kts | 3° |
| 2026-04-28 19:19 | 49.66497 | 30.72929 | 15520 ft | 270 kts | 3° |
| 2026-04-28 19:19 | 49.68308 | 30.73537 | 15208 ft | 268 kts | 4° |
| 2026-04-28 19:19 | 49.70148 | 30.74158 | 14871 ft | 267 kts | 4° |
| 2026-04-28 19:19 | 49.71960 | 30.74772 | 14547 ft | 265 kts | 4° |
| 2026-04-28 19:20 | 49.73750 | 30.75382 | 14207 ft | 264 kts | 4° |
| 2026-04-28 19:20 | 49.75557 | 30.75996 | 13881 ft | 263 kts | 4° |
| 2026-04-28 19:20 | 49.77320 | 30.76599 | 13563 ft | 261 kts | 5° |
| 2026-04-28 19:20 | 49.79094 | 30.77206 | 13247 ft | 259 kts | 5° |
| 2026-04-28 19:21 | 49.80862 | 30.77811 | 12919 ft | 257 kts | 5° |
| 2026-04-28 19:21 | 49.82586 | 30.78402 | 12611 ft | 255 kts | 6° |
| 2026-04-28 19:21 | 49.84320 | 30.78997 | 12273 ft | 254 kts | 6° |
| 2026-04-28 19:21 | 49.86055 | 30.79594 | 11940 ft | 252 kts | 6° |
| 2026-04-28 19:22 | 49.87763 | 30.80181 | 11608 ft | 251 kts | 7° |
| 2026-04-28 19:22 | 49.88876 | 30.80564 | 11401 ft | 250 kts | 7° |
| 2026-04-28 19:22 | 49.91157 | 30.81349 | 10971 ft | 247 kts | 8° |
| 2026-04-28 19:22 | 49.92838 | 30.81929 | 10651 ft | 245 kts | 8° |
| 2026-04-28 19:23 | 49.94517 | 30.82509 | 10323 ft | 243 kts | 8° |
| 2026-04-28 19:23 | 49.96157 | 30.83076 | 10007 ft | 242 kts | 9° |
| 2026-04-28 19:23 | 49.97820 | 30.83653 | 9683 ft | 240 kts | 9° |
| 2026-04-28 19:23 | 49.99433 | 30.84212 | 9355 ft | 238 kts | 9° |
| 2026-04-28 19:24 | 50.01062 | 30.84778 | 8832 ft | 241 kts | 9° |
| 2026-04-28 19:24 | 50.02705 | 30.85345 | 8472 ft | 239 kts | 9° |
| 2026-04-28 19:24 | 50.04320 | 30.85907 | 8197 ft | 236 kts | 9° |
| 2026-04-28 19:24 | 50.05933 | 30.86467 | 7892 ft | 234 kts | 9° |
| 2026-04-28 19:25 | 50.07525 | 30.87020 | 7561 ft | 233 kts | 10° |
| 2026-04-28 19:25 | 50.09101 | 30.87567 | 7085 ft | 239 kts | 10° |
| 2026-04-28 19:25 | 50.10752 | 30.88137 | 6564 ft | 245 kts | 10° |
| 2026-04-28 19:25 | 50.12423 | 30.88702 | 6034 ft | 242 kts | 8° |
| 2026-04-28 19:26 | 50.14055 | 30.88877 | 5499 ft | 236 kts | 348° |
| 2026-04-28 19:26 | 50.15507 | 30.87832 | 4970 ft | 230 kts | 317° |
| 2026-04-28 19:26 | 50.16356 | 30.85713 | 4437 ft | 231 kts | 285° |
| 2026-04-28 19:26 | 50.16325 | 30.83219 | 3919 ft | 236 kts | 254° |
| 2026-04-28 19:27 | 50.15413 | 30.81131 | 3659 ft | 235 kts | 221° |
| 2026-04-28 19:27 | 50.13936 | 30.80127 | 3469 ft | 232 kts | 187° |
| 2026-04-28 19:27 | 50.12352 | 30.80518 | 3283 ft | 226 kts | 152° |
| 2026-04-28 19:27 | 50.11199 | 30.82146 | 3020 ft | 220 kts | 116° |
| 2026-04-28 19:28 | 50.10878 | 30.84372 | 2947 ft | 207 kts | 79° |
| 2026-04-28 19:28 | 50.11445 | 30.86359 | 2950 ft | 199 kts | 42° |
| 2026-04-28 19:28 | 50.12581 | 30.87561 | 2971 ft | 197 kts | 27° |
| 2026-04-28 19:28 | 50.13784 | 30.88654 | 2958 ft | 197 kts | 28° |
| 2026-04-28 19:29 | 50.14954 | 30.89751 | 3034 ft | 187 kts | 28° |
| 2026-04-28 19:29 | 50.15673 | 30.90406 | 2995 ft | 178 kts | 22° |
| 2026-04-28 19:29 | 50.17256 | 30.90432 | 2953 ft | 165 kts | 345° |
| 2026-04-28 19:29 | 50.18330 | 30.89997 | 2924 ft | 151 kts | 347° |
| 2026-04-28 19:30 | 50.19327 | 30.89744 | 2913 ft | 142 kts | 353° |
| 2026-04-28 19:30 | 50.20211 | 30.89651 | 2868 ft | 143 kts | 356° |
| 2026-04-28 19:30 | 50.21209 | 30.89620 | 2683 ft | 142 kts | 359° |
| 2026-04-28 19:30 | 50.22194 | 30.89644 | 2488 ft | 141 kts | 0° |
| 2026-04-28 19:31 | 50.23186 | 30.89698 | 2291 ft | 141 kts | 1° |
| 2026-04-28 19:31 | 50.24159 | 30.89766 | 2087 ft | 137 kts | 1° |
| 2026-04-28 19:31 | 50.25116 | 30.89837 | 1930 ft | 137 kts | 1° |
| 2026-04-28 19:31 | 50.26083 | 30.89910 | 1737 ft | 136 kts | 1° |
| 2026-04-28 19:32 | 50.27034 | 30.89982 | 1537 ft | 137 kts | 1° |
| 2026-04-28 19:32 | 50.28000 | 30.90054 | 1339 ft | 137 kts | 1° |
| 2026-04-28 19:32 | 50.28952 | 30.90125 | 1149 ft | 138 kts | 1° |
| 2026-04-28 19:32 | 50.29941 | 30.90198 | 954 ft | 139 kts | 1° |
| 2026-04-28 19:33 | 50.30914 | 30.90271 | 762 ft | 139 kts | 1° |
| 2026-04-28 19:33 | 50.31885 | 30.90338 | 587 ft | 140 kts | 2° |
| 2026-04-28 19:33 | 50.32864 | 30.90409 | 421 ft | 139 kts | 1° |
| 2026-04-28 19:33 | 50.33689 | 30.90466 | 415 ft | 76 kts | 3° |
| 2026-04-28 19:34 | 50.34096 | 30.90501 | 409 ft | 52 kts | 1° |
| 2026-04-28 19:34 | 50.34351 | 30.90436 | 409 ft | 24 kts | 332° |
| 2026-04-28 19:34 | 50.34492 | 30.90315 | 409 ft | 20 kts | 312° |
| 2026-04-28 19:34 | 50.34460 | 30.90209 | 409 ft | 12 kts | 192° |
| 2026-04-28 19:35 | 50.34374 | 30.90199 | 411 ft | 12 kts | 183° |
| 2026-04-28 19:35 | 50.34289 | 30.90192 | 412 ft | 12 kts | 183° |
| 2026-04-28 19:35 | 50.34195 | 30.90185 | 412 ft | 14 kts | 182° |
| 2026-04-28 19:35 | 50.34086 | 30.90178 | 412 ft | 16 kts | 182° |
| 2026-04-28 19:36 | 50.33969 | 30.90169 | 412 ft | 17 kts | 183° |
| 2026-04-28 19:36 | 50.33839 | 30.90160 | 412 ft | 19 kts | 184° |
| 2026-04-28 19:36 | 50.33706 | 30.90151 | 415 ft | 18 kts | 183° |
| 2026-04-28 19:36 | 50.33572 | 30.90140 | 416 ft | 19 kts | 183° |
| 2026-04-28 19:37 | 50.33496 | 30.90029 | 416 ft | 16 kts | 271° |
| 2026-04-28 19:37 | 50.33501 | 30.89906 | 416 ft | 16 kts | 273° |
| 2026-04-28 19:37 | 50.33473 | 30.89762 | 417 ft | 7 kts | 183° |
| 2026-04-28 19:37 | 50.33418 | 30.89759 | 416 ft | 2 kts | 182° |
| 2026-04-28 19:38 | 50.33413 | 30.89758 | 416 ft | 0 kts | 182° |